Time;durP1;ratioP1;P1;durP2;ratioP2;P2;SDS_P1;SDS_P2;PMS_P1;PMS_P2;Temp;Humidity;BMP_temperature;BMP_pressure;BME280_temperature;BME280_humidity;BME280_pressure;Samples;Min_cycle;Max_cycle;Signal;HPM_P1;HPM_P2
2022/01/02 00:01:47;;;;;;;5.18;3.25;;;;;;;;;;4972413;28;20050;-77
2022/01/02 00:04:16;;;;;;;4.88;3.42;;;;;;;;;;4956320;28;20037;-77
2022/01/02 00:06:51;;;;;;;3.65;3.13;;;;;;;;;;4986862;28;20395;-77
2022/01/02 00:09:30;;;;;;;4.50;3.25;;;;;;;;;;4988781;28;20177;-76
2022/01/02 00:12:10;;;;;;;4.28;2.90;;;;;;;;;;4973873;28;20393;-77
2022/01/02 00:14:36;;;;;;;4.72;3.20;;;;;;;;;;4972721;28;20316;-77
2022/01/02 00:17:03;;;;;;;5.05;3.38;;;;;;;;;;4972902;28;20394;-77
2022/01/02 00:19:30;;;;;;;5.70;3.20;;;;;;;;;;4957592;28;20027;-76
2022/01/02 00:21:59;;;;;;;5.47;3.13;;;;;;;;;;4973316;28;20129;-77
2022/01/02 00:24:26;;;;;;;5.30;3.33;;;;;;;;;;4956072;28;20031;-77
2022/01/02 00:26:51;;;;;;;3.45;2.75;;;;;;;;;;4972503;28;20026;-77
2022/01/02 00:29:16;;;;;;;4.28;2.55;;;;;;;;;;4973465;28;20069;-77
2022/01/02 00:31:42;;;;;;;2.97;2.65;;;;;;;;;;4969918;28;20429;-77
2022/01/02 00:34:08;;;;;;;2.20;2.00;;;;;;;;;;4970455;28;20057;-77
2022/01/02 00:36:33;;;;;;;2.80;2.42;;;;;;;;;;4973452;28;20022;-77
2022/01/02 00:38:59;;;;;;;3.17;2.50;;;;;;;;;;4973221;28;20089;-77
2022/01/02 00:41:41;;;;;;;4.15;2.25;;;;;;;;;;4971471;28;20641;-77
2022/01/02 00:44:24;;;;;;;2.88;2.25;;;;;;;;;;4984965;28;20052;-77
2022/01/02 00:47:20;;;;;;;3.85;2.85;;;;;;;;;;4971907;28;20510;-77
2022/01/02 00:50:09;;;;;;;4.15;2.80;;;;;;;;;;4985359;28;20046;-77
2022/01/02 00:52:35;;;;;;;3.55;2.40;;;;;;;;;;4987024;28;20039;-77
2022/01/02 00:55:01;;;;;;;3.80;2.78;;;;;;;;;;4972073;28;20035;-77
2022/01/02 00:57:31;;;;;;;3.15;2.75;;;;;;;;;;4987771;28;20037;-77
2022/01/02 01:00:12;;;;;;;3.63;2.80;;;;;;;;;;4973022;28;20993;-77
2022/01/02 01:02:47;;;;;;;3.35;2.65;;;;;;;;;;4970726;28;20051;-77
2022/01/02 01:05:22;;;;;;;5.90;3.30;;;;;;;;;;4985153;28;20031;-77
2022/01/02 01:07:49;;;;;;;6.10;3.05;;;;;;;;;;4987095;28;20116;-77
2022/01/02 01:10:14;;;;;;;3.92;2.80;;;;;;;;;;4988179;28;20429;-77
2022/01/02 01:12:39;;;;;;;3.25;2.80;;;;;;;;;;4987952;28;20154;-77
2022/01/02 01:15:06;;;;;;;3.55;3.03;;;;;;;;;;4972579;28;20030;-77
2022/01/02 01:17:31;;;;;;;6.78;3.30;;;;;;;;;;4971622;28;20031;-77
2022/01/02 01:19:58;;;;;;;6.43;3.08;;;;;;;;;;4974878;28;20082;-77
2022/01/02 01:22:23;;;;;;;4.93;3.03;;;;;;;;;;4976342;28;20031;-77
2022/01/02 01:24:48;;;;;;;4.72;2.95;;;;;;;;;;4972288;28;20437;-77
2022/01/02 01:27:14;;;;;;;4.47;2.90;;;;;;;;;;4972187;28;20450;-77
2022/01/02 01:29:39;;;;;;;2.80;2.40;;;;;;;;;;4972021;28;20061;-77
2022/01/02 01:32:05;;;;;;;2.83;2.42;;;;;;;;;;4969063;28;20137;-77
2022/01/02 01:34:30;;;;;;;3.05;2.50;;;;;;;;;;4988747;28;20121;-77
2022/01/02 01:36:55;;;;;;;4.95;2.55;;;;;;;;;;4961427;28;20428;-76
2022/01/02 01:39:21;;;;;;;3.70;2.80;;;;;;;;;;4974495;28;20019;-76
2022/01/02 01:41:46;;;;;;;3.25;2.65;;;;;;;;;;4973297;28;20035;-77
2022/01/02 01:46:37;;;;;;;3.72;2.70;;;;;;;;;;4985975;28;20058;-77
2022/01/02 01:49:15;;;;;;;3.97;2.58;;;;;;;;;;4974473;28;20043;-76
2022/01/02 01:51:41;;;;;;;6.15;3.45;;;;;;;;;;4970965;28;20481;-76
2022/01/02 01:54:07;;;;;;;6.75;3.88;;;;;;;;;;4973103;28;20453;-76
2022/01/02 01:56:32;;;;;;;8.48;3.60;;;;;;;;;;4971220;28;20035;-77
2022/01/02 01:58:57;;;;;;;4.90;2.75;;;;;;;;;;4989050;28;20103;-77
2022/01/02 02:01:23;;;;;;;3.35;2.55;;;;;;;;;;4972060;28;20050;-76
2022/01/02 02:03:48;;;;;;;6.25;2.83;;;;;;;;;;4972702;28;20046;-76
2022/01/02 02:06:13;;;;;;;4.47;2.75;;;;;;;;;;4986517;28;20043;-76
2022/01/02 02:08:39;;;;;;;4.18;2.35;;;;;;;;;;4972902;28;20038;-76
2022/01/02 02:11:04;;;;;;;2.40;2.05;;;;;;;;;;4977162;28;20022;-76
2022/01/02 02:13:29;;;;;;;6.38;2.72;;;;;;;;;;4962363;28;20200;-77
2022/01/02 02:15:55;;;;;;;2.00;1.75;;;;;;;;;;4975663;28;20065;-77
2022/01/02 02:18:20;;;;;;;2.42;2.10;;;;;;;;;;4975745;28;20056;-77
2022/01/02 02:20:45;;;;;;;3.25;2.13;;;;;;;;;;4990943;28;20073;-76
2022/01/02 02:23:12;;;;;;;2.90;2.05;;;;;;;;;;4991347;28;20077;-77
2022/01/02 02:25:37;;;;;;;2.90;2.40;;;;;;;;;;4971949;28;20038;-76
2022/01/02 02:28:10;;;;;;;3.38;2.80;;;;;;;;;;4961043;28;20071;-77
2022/01/02 02:30:36;;;;;;;4.05;2.92;;;;;;;;;;4988980;28;20034;-77
2022/01/02 02:33:03;;;;;;;3.25;2.67;;;;;;;;;;4976452;28;20120;-77
2022/01/02 02:35:29;;;;;;;3.35;2.72;;;;;;;;;;4976021;28;20370;-77
2022/01/02 02:37:54;;;;;;;3.88;2.80;;;;;;;;;;4990556;28;20035;-77
2022/01/02 02:40:21;;;;;;;3.83;2.75;;;;;;;;;;4975937;28;20036;-76
2022/01/02 02:42:50;;;;;;;3.42;2.60;;;;;;;;;;4976013;28;20066;-77
2022/01/02 02:51:02;;;;;;;3.67;2.30;;;;;;;;;;4983341;28;20030;-76
2022/01/02 02:53:27;;;;;;;2.95;2.35;;;;;;;;;;4976455;28;20042;-76
2022/01/02 02:55:56;;;;;;;2.72;2.33;;;;;;;;;;4975266;28;20321;-76
2022/01/02 03:00:59;;;;;;;3.70;2.15;;;;;;;;;;4975524;28;20213;-76
2022/01/02 03:03:24;;;;;;;2.25;2.05;;;;;;;;;;4975099;28;20037;-76
2022/01/02 03:05:50;;;;;;;3.00;2.10;;;;;;;;;;4957189;28;20034;-77
2022/01/02 03:08:15;;;;;;;2.20;2.00;;;;;;;;;;4975022;28;20477;-77
2022/01/02 03:10:40;;;;;;;3.20;2.05;;;;;;;;;;4973415;28;20035;-76
2022/01/02 03:13:06;;;;;;;4.20;2.47;;;;;;;;;;4989484;28;20038;-76
2022/01/02 03:15:31;;;;;;;5.68;2.70;;;;;;;;;;4975134;28;20033;-77
2022/01/02 03:17:56;;;;;;;3.88;2.30;;;;;;;;;;4989726;28;20042;-77
2022/01/02 03:20:22;;;;;;;2.92;2.58;;;;;;;;;;4973371;28;20073;-77
2022/01/02 03:22:47;;;;;;;2.03;1.80;;;;;;;;;;4975890;28;20026;-77
2022/01/02 03:25:14;;;;;;;2.00;1.80;;;;;;;;;;4973363;28;20022;-77
2022/01/02 03:27:40;;;;;;;2.80;1.90;;;;;;;;;;4990083;28;20126;-77
2022/01/02 03:30:06;;;;;;;3.53;1.85;;;;;;;;;;4988655;28;20030;-77
2022/01/02 03:32:31;;;;;;;2.17;1.85;;;;;;;;;;4975169;28;20046;-76
2022/01/02 03:34:57;;;;;;;2.78;2.05;;;;;;;;;;4974608;28;20084;-77
2022/01/02 03:37:22;;;;;;;5.10;1.85;;;;;;;;;;4990398;28;20034;-77
2022/01/02 03:39:47;;;;;;;1.95;1.70;;;;;;;;;;4975102;28;20023;-77
2022/01/02 03:42:13;;;;;;;2.67;1.92;;;;;;;;;;4973816;28;20500;-77
2022/01/02 03:44:38;;;;;;;2.28;1.75;;;;;;;;;;4973637;28;20496;-77
2022/01/02 03:47:03;;;;;;;2.67;2.00;;;;;;;;;;4988517;28;20494;-77
2022/01/02 03:49:29;;;;;;;2.25;2.05;;;;;;;;;;4976484;28;20349;-77
2022/01/02 03:51:54;;;;;;;2.17;1.98;;;;;;;;;;4973123;28;20054;-76
2022/01/02 03:54:19;;;;;;;2.30;2.10;;;;;;;;;;4974954;28;20050;-76
2022/01/02 03:56:47;;;;;;;3.30;2.20;;;;;;;;;;4971802;28;20034;-77
2022/01/02 03:59:12;;;;;;;2.22;1.73;;;;;;;;;;4973860;28;20080;-77
2022/01/02 04:01:37;;;;;;;1.73;1.55;;;;;;;;;;4972902;28;20069;-77
2022/01/02 04:04:03;;;;;;;1.48;1.38;;;;;;;;;;4974301;28;20430;-76
2022/01/02 04:06:28;;;;;;;1.65;1.55;;;;;;;;;;4972925;28;20547;-76
2022/01/02 04:08:53;;;;;;;2.83;1.90;;;;;;;;;;4975066;28;20457;-77
2022/01/02 04:11:19;;;;;;;1.77;1.67;;;;;;;;;;4971992;28;20030;-77
2022/01/02 04:13:44;;;;;;;2.13;1.92;;;;;;;;;;4989322;28;20041;-77
2022/01/02 04:16:09;;;;;;;2.35;2.15;;;;;;;;;;4973222;28;20115;-76
2022/01/02 04:18:35;;;;;;;4.55;1.95;;;;;;;;;;4976673;28;20050;-77
2022/01/02 04:21:00;;;;;;;3.38;2.28;;;;;;;;;;4974638;28;20054;-76
2022/01/02 04:23:25;;;;;;;2.40;2.15;;;;;;;;;;4989353;28;20121;-76
2022/01/02 04:25:51;;;;;;;2.10;1.90;;;;;;;;;;4972267;28;20053;-76
2022/01/02 04:28:16;;;;;;;2.17;1.98;;;;;;;;;;4973600;28;20117;-77
2022/01/02 04:30:41;;;;;;;2.35;1.70;;;;;;;;;;4970568;28;20038;-76
2022/01/02 04:33:07;;;;;;;1.60;1.50;;;;;;;;;;4987162;28;20022;-77
2022/01/02 04:35:32;;;;;;;1.52;1.40;;;;;;;;;;4986991;28;20033;-77
2022/01/02 04:37:57;;;;;;;1.50;1.33;;;;;;;;;;4973388;28;20063;-76
2022/01/02 04:40:23;;;;;;;1.63;1.52;;;;;;;;;;4972848;28;20069;-76
2022/01/02 04:42:48;;;;;;;2.63;1.70;;;;;;;;;;4972077;28;20049;-76
2022/01/02 04:45:13;;;;;;;3.80;1.50;;;;;;;;;;4975747;28;20030;-77
2022/01/02 04:47:39;;;;;;;3.05;1.73;;;;;;;;;;4971753;28;20026;-77
2022/01/02 04:50:05;;;;;;;4.28;1.73;;;;;;;;;;4987844;28;20059;-77
2022/01/02 04:52:31;;;;;;;1.88;1.48;;;;;;;;;;4988031;28;20033;-77
2022/01/02 04:54:56;;;;;;;2.15;1.40;;;;;;;;;;4957778;28;20891;-77
2022/01/02 04:57:21;;;;;;;1.75;1.40;;;;;;;;;;4970855;28;20146;-77
2022/01/02 04:59:47;;;;;;;2.00;1.80;;;;;;;;;;4987905;28;20027;-77
2022/01/02 05:02:12;;;;;;;2.67;1.85;;;;;;;;;;4971363;28;20053;-77
2022/01/02 05:04:37;;;;;;;2.33;2.03;;;;;;;;;;4986709;28;20498;-77
2022/01/02 05:07:03;;;;;;;3.22;2.00;;;;;;;;;;4970256;28;20979;-77
2022/01/02 05:09:28;;;;;;;3.25;2.08;;;;;;;;;;4972585;28;20502;-77
2022/01/02 05:11:54;;;;;;;5.00;2.28;;;;;;;;;;4972719;28;20121;-77
2022/01/02 05:14:19;;;;;;;4.78;1.92;;;;;;;;;;4973137;28;20150;-77
2022/01/02 05:16:44;;;;;;;3.35;1.95;;;;;;;;;;4971598;28;20023;-77
2022/01/02 05:19:10;;;;;;;1.95;1.75;;;;;;;;;;4974562;28;20072;-77
2022/01/02 05:21:35;;;;;;;3.05;2.00;;;;;;;;;;4971355;28;20116;-77
2022/01/02 05:24:00;;;;;;;1.98;1.60;;;;;;;;;;4987588;28;20022;-77
2022/01/02 05:26:26;;;;;;;2.67;1.35;;;;;;;;;;4972866;28;20101;-77
2022/01/02 05:28:51;;;;;;;1.25;1.13;;;;;;;;;;4987511;28;20030;-77
2022/01/02 05:31:16;;;;;;;0.90;0.90;;;;;;;;;;4986443;28;20026;-77
2022/01/02 05:33:42;;;;;;;1.00;1.00;;;;;;;;;;4976051;28;20121;-77
2022/01/02 05:36:07;;;;;;;1.25;1.15;;;;;;;;;;4972091;28;20026;-77
2022/01/02 05:38:32;;;;;;;1.58;1.20;;;;;;;;;;4987703;28;20063;-77
2022/01/02 05:40:58;;;;;;;1.38;1.27;;;;;;;;;;4987859;28;20074;-77
2022/01/02 05:43:23;;;;;;;1.20;1.10;;;;;;;;;;4972569;28;20018;-77
2022/01/02 05:45:48;;;;;;;1.05;1.00;;;;;;;;;;4977681;28;20042;-77
2022/01/02 05:48:14;;;;;;;1.20;1.10;;;;;;;;;;4975842;28;20118;-77
2022/01/02 05:50:39;;;;;;;1.52;1.20;;;;;;;;;;4977578;28;20397;-77
2022/01/02 05:53:04;;;;;;;1.10;1.10;;;;;;;;;;4976274;28;20477;-77
2022/01/02 05:55:30;;;;;;;1.10;1.10;;;;;;;;;;4972542;28;20500;-77
2022/01/02 05:57:55;;;;;;;0.90;0.90;;;;;;;;;;4974323;28;20065;-77
2022/01/02 06:00:20;;;;;;;1.65;1.10;;;;;;;;;;4989451;28;20042;-77
2022/01/02 06:02:46;;;;;;;1.02;1.02;;;;;;;;;;4974817;28;20081;-77
2022/01/02 06:05:11;;;;;;;0.90;0.90;;;;;;;;;;4973899;28;20118;-77
2022/01/02 06:07:36;;;;;;;1.10;1.00;;;;;;;;;;4976418;28;20161;-77
2022/01/02 06:10:03;;;;;;;1.50;1.20;;;;;;;;;;4991094;28;20117;-77
2022/01/02 06:12:28;;;;;;;1.08;1.00;;;;;;;;;;4992206;28;20049;-77
2022/01/02 06:14:54;;;;;;;1.10;1.10;;;;;;;;;;4962941;28;20525;-77
2022/01/02 06:17:19;;;;;;;1.33;1.23;;;;;;;;;;4978118;28;20499;-77
2022/01/02 06:19:44;;;;;;;1.60;1.50;;;;;;;;;;4976462;28;20061;-77
2022/01/02 06:22:10;;;;;;;1.40;1.30;;;;;;;;;;4979004;28;20453;-77
2022/01/02 06:24:35;;;;;;;1.25;1.25;;;;;;;;;;4977133;28;20478;-77
2022/01/02 06:27:00;;;;;;;1.50;1.40;;;;;;;;;;4975096;28;20547;-77
2022/01/02 06:29:25;;;;;;;1.33;1.23;;;;;;;;;;4975185;28;20505;-77
2022/01/02 06:31:51;;;;;;;1.20;1.10;;;;;;;;;;4974883;28;20062;-77
2022/01/02 06:34:16;;;;;;;1.52;1.20;;;;;;;;;;4975487;28;20066;-77
2022/01/02 06:36:42;;;;;;;1.48;1.38;;;;;;;;;;4988942;28;20070;-77
2022/01/02 06:39:07;;;;;;;1.40;1.30;;;;;;;;;;4977378;28;20041;-77
2022/01/02 06:41:32;;;;;;;2.15;1.42;;;;;;;;;;4975522;28;20429;-77
2022/01/02 06:43:58;;;;;;;1.75;1.50;;;;;;;;;;4978090;28;20039;-72
2022/01/02 06:46:23;;;;;;;1.33;1.23;;;;;;;;;;4975128;28;20053;-74
2022/01/02 06:48:48;;;;;;;1.52;1.35;;;;;;;;;;4975118;28;20034;-73
2022/01/02 06:51:14;;;;;;;1.10;1.10;;;;;;;;;;4974308;28;20429;-74
2022/01/02 06:53:39;;;;;;;1.38;1.27;;;;;;;;;;4975417;28;20400;-74
2022/01/02 06:56:04;;;;;;;1.02;0.90;;;;;;;;;;4988155;28;20565;-74
2022/01/02 06:58:30;;;;;;;1.75;0.90;;;;;;;;;;4988778;28;20584;-74
2022/01/02 07:00:56;;;;;;;0.82;0.82;;;;;;;;;;4971237;28;20063;-74
2022/01/02 07:03:21;;;;;;;1.20;1.10;;;;;;;;;;4989720;28;21307;-74
2022/01/02 07:05:47;;;;;;;1.35;1.00;;;;;;;;;;4987716;28;20125;-74
2022/01/02 07:08:12;;;;;;;1.20;1.05;;;;;;;;;;4990467;28;20119;-74
2022/01/02 07:10:38;;;;;;;1.15;1.05;;;;;;;;;;4974590;28;20117;-74
2022/01/02 07:13:03;;;;;;;1.02;1.02;;;;;;;;;;4974115;28;20023;-73
2022/01/02 07:15:28;;;;;;;0.80;0.80;;;;;;;;;;4973524;28;20073;-74
2022/01/02 07:17:54;;;;;;;2.00;1.10;;;;;;;;;;4974069;28;20022;-74
2022/01/02 07:20:19;;;;;;;1.10;1.00;;;;;;;;;;4971702;28;20037;-73
2022/01/02 07:22:46;;;;;;;1.98;1.20;;;;;;;;;;4975038;28;20054;-74
2022/01/02 07:25:11;;;;;;;1.17;0.90;;;;;;;;;;4974112;28;20030;-74
2022/01/02 07:27:36;;;;;;;1.13;1.02;;;;;;;;;;4984792;28;20094;-73
2022/01/02 07:30:03;;;;;;;1.05;1.05;;;;;;;;;;4974797;28;20269;-74
2022/01/02 07:32:28;;;;;;;1.30;1.20;;;;;;;;;;4971579;28;20047;-74
2022/01/02 07:34:53;;;;;;;3.80;1.67;;;;;;;;;;4971662;28;20090;-74
2022/01/02 07:37:19;;;;;;;1.13;1.13;;;;;;;;;;4974469;28;20144;-74
2022/01/02 07:39:44;;;;;;;0.95;0.95;;;;;;;;;;4972295;28;20026;-74
2022/01/02 07:42:09;;;;;;;1.80;1.20;;;;;;;;;;4972992;28;20069;-74
2022/01/02 07:44:37;;;;;;;0.90;0.90;;;;;;;;;;4973951;28;20027;-74
2022/01/02 07:47:03;;;;;;;0.85;0.85;;;;;;;;;;4987430;28;20034;-74
2022/01/02 07:49:29;;;;;;;0.90;0.90;;;;;;;;;;4987642;28;20141;-74
2022/01/02 07:51:54;;;;;;;2.00;1.48;;;;;;;;;;4973183;28;20172;-74
2022/01/02 07:54:19;;;;;;;3.05;1.98;;;;;;;;;;4973525;28;20113;-74
2022/01/02 07:56:44;;;;;;;1.52;1.38;;;;;;;;;;4972754;28;20505;-74
2022/01/02 07:59:10;;;;;;;1.33;1.25;;;;;;;;;;4972798;28;20578;-74
2022/01/02 08:01:35;;;;;;;3.42;1.83;;;;;;;;;;4985829;28;20069;-74
2022/01/02 08:04:01;;;;;;;2.92;2.30;;;;;;;;;;4973074;28;20072;-74
2022/01/02 08:06:26;;;;;;;1.00;1.00;;;;;;;;;;4970998;28;20039;-74
2022/01/02 08:08:51;;;;;;;2.15;1.55;;;;;;;;;;4972842;28;20035;-74
2022/01/02 08:11:17;;;;;;;1.00;1.00;;;;;;;;;;4972086;28;20144;-74
2022/01/02 08:13:43;;;;;;;1.75;1.30;;;;;;;;;;4973651;28;20026;-74
2022/01/02 08:16:09;;;;;;;1.52;1.30;;;;;;;;;;4974842;28;20043;-74
2022/01/02 08:18:34;;;;;;;1.45;1.30;;;;;;;;;;4973998;28;20030;-74
2022/01/02 08:20:59;;;;;;;1.98;1.40;;;;;;;;;;4985884;28;20146;-74
2022/01/02 08:23:25;;;;;;;1.73;1.48;;;;;;;;;;4972754;28;20109;-74
2022/01/02 08:25:50;;;;;;;1.00;1.00;;;;;;;;;;4969371;28;20358;-74
2022/01/02 08:28:15;;;;;;;0.95;0.85;;;;;;;;;;4971899;28;20074;-74
2022/01/02 08:30:43;;;;;;;0.70;0.70;;;;;;;;;;4969855;28;20182;-74
2022/01/02 08:33:09;;;;;;;1.10;1.10;;;;;;;;;;4971179;28;20057;-74
2022/01/02 08:35:34;;;;;;;2.47;1.90;;;;;;;;;;4986285;28;20026;-75
2022/01/02 08:37:59;;;;;;;1.00;1.00;;;;;;;;;;4970953;28;20499;-74
2022/01/02 08:40:24;;;;;;;1.15;1.05;;;;;;;;;;4971033;28;20517;-74
2022/01/02 08:42:50;;;;;;;1.10;1.00;;;;;;;;;;4970079;28;20517;-74
2022/01/02 08:45:15;;;;;;;0.93;0.93;;;;;;;;;;4970884;28;20706;-74
2022/01/02 08:47:40;;;;;;;0.70;0.70;;;;;;;;;;4971943;28;20031;-74
2022/01/02 08:50:06;;;;;;;0.80;0.80;;;;;;;;;;4971569;28;20065;-74
2022/01/02 08:52:31;;;;;;;0.65;0.60;;;;;;;;;;4971930;28;20550;-74
2022/01/02 08:54:56;;;;;;;0.60;0.60;;;;;;;;;;4971552;28;20065;-74
2022/01/02 08:57:22;;;;;;;0.52;0.52;;;;;;;;;;4971104;28;20038;-73
2022/01/02 08:59:47;;;;;;;0.70;0.70;;;;;;;;;;4987314;28;20026;-74
2022/01/02 09:02:12;;;;;;;0.65;0.65;;;;;;;;;;4968686;28;20122;-74
2022/01/02 09:04:38;;;;;;;0.60;0.60;;;;;;;;;;4970602;28;20030;-74
2022/01/02 09:07:03;;;;;;;0.70;0.70;;;;;;;;;;4986788;28;20041;-74
2022/01/02 09:09:29;;;;;;;0.60;0.60;;;;;;;;;;4972786;28;20047;-74
2022/01/02 09:11:54;;;;;;;2.28;0.98;;;;;;;;;;4970250;28;20168;-75
2022/01/02 09:14:19;;;;;;;0.85;0.85;;;;;;;;;;4972810;28;20493;-73
2022/01/02 09:16:45;;;;;;;0.80;0.80;;;;;;;;;;4973398;28;20065;-74
2022/01/02 09:19:11;;;;;;;0.90;0.90;;;;;;;;;;4971461;28;20026;-74
2022/01/02 09:21:36;;;;;;;0.75;0.70;;;;;;;;;;4969939;28;20065;-74
2022/01/02 09:24:02;;;;;;;0.70;0.70;;;;;;;;;;4970821;28;20113;-74
2022/01/02 09:26:28;;;;;;;2.35;1.25;;;;;;;;;;4968880;28;20061;-74
2022/01/02 09:28:53;;;;;;;0.80;0.80;;;;;;;;;;4967767;28;20118;-74
2022/01/02 09:31:18;;;;;;;0.90;0.90;;;;;;;;;;4970582;28;20030;-74
2022/01/02 09:33:44;;;;;;;4.13;0.82;;;;;;;;;;4968870;28;20105;-74
2022/01/02 09:36:09;;;;;;;0.85;0.85;;;;;;;;;;4971439;28;20106;-74
2022/01/02 09:38:34;;;;;;;0.82;0.82;;;;;;;;;;4970626;28;20824;-74
2022/01/02 09:41:00;;;;;;;0.75;0.75;;;;;;;;;;4984530;28;20109;-74
2022/01/02 09:43:26;;;;;;;1.08;1.00;;;;;;;;;;4971671;28;20129;-74
2022/01/02 09:45:51;;;;;;;0.80;0.80;;;;;;;;;;4959815;28;20393;-74
2022/01/02 09:48:17;;;;;;;0.80;0.80;;;;;;;;;;4975187;28;20026;-74
2022/01/02 09:50:43;;;;;;;0.90;0.90;;;;;;;;;;4971560;28;20461;-74
2022/01/02 09:53:08;;;;;;;0.80;0.80;;;;;;;;;;4985990;28;20038;-74
2022/01/02 09:55:33;;;;;;;0.98;0.98;;;;;;;;;;4972941;28;20046;-74
2022/01/02 09:58:00;;;;;;;0.80;0.80;;;;;;;;;;4972435;28;20065;-74
2022/01/02 10:00:25;;;;;;;0.77;0.77;;;;;;;;;;4974547;28;20046;-74
2022/01/02 10:03:01;;;;;;;1.00;0.90;;;;;;;;;;4973061;28;20034;-74
2022/01/02 10:05:28;;;;;;;0.70;0.70;;;;;;;;;;4969184;28;20640;-74
2022/01/02 10:07:55;;;;;;;0.90;0.90;;;;;;;;;;4969109;28;20030;-74
2022/01/02 10:10:20;;;;;;;0.90;0.90;;;;;;;;;;4974727;28;20027;-74
2022/01/02 10:12:45;;;;;;;1.02;0.68;;;;;;;;;;4971967;28;20551;-74
2022/01/02 10:15:14;;;;;;;0.95;0.63;;;;;;;;;;4968796;28;20030;-74
2022/01/02 10:17:58;;;;;;;0.70;0.70;;;;;;;;;;4972842;28;20089;-74
2022/01/02 10:20:25;;;;;;;0.73;0.73;;;;;;;;;;4971188;28;20027;-74
2022/01/02 10:23:03;;;;;;;0.73;0.73;;;;;;;;;;4974277;28;20448;-74
2022/01/02 10:25:47;;;;;;;0.70;0.70;;;;;;;;;;4986078;28;20110;-74
2022/01/02 10:28:22;;;;;;;2.33;0.80;;;;;;;;;;4969749;28;20098;-74
2022/01/02 10:30:48;;;;;;;0.95;0.90;;;;;;;;;;4971422;28;20043;-74
2022/01/02 10:33:14;;;;;;;0.70;0.70;;;;;;;;;;4976060;28;21077;-74
2022/01/02 10:35:41;;;;;;;0.90;0.90;;;;;;;;;;4972923;28;20042;-74
2022/01/02 10:38:06;;;;;;;0.80;0.80;;;;;;;;;;4972017;28;20789;-74
2022/01/02 10:40:36;;;;;;;1.00;0.90;;;;;;;;;;4975182;28;20026;-74
2022/01/02 10:43:04;;;;;;;0.80;0.80;;;;;;;;;;4972577;28;20062;-74
2022/01/02 10:45:32;;;;;;;0.77;0.70;;;;;;;;;;4988722;28;20378;-74
2022/01/02 10:47:58;;;;;;;0.60;0.60;;;;;;;;;;4974331;28;20027;-74
2022/01/02 10:50:23;;;;;;;0.80;0.80;;;;;;;;;;4973663;28;20113;-74
2022/01/02 10:52:49;;;;;;;0.80;0.80;;;;;;;;;;4971624;28;20041;-74
2022/01/02 10:55:19;;;;;;;1.10;0.70;;;;;;;;;;4971587;28;20035;-75
2022/01/02 10:57:49;;;;;;;0.90;0.90;;;;;;;;;;4988353;28;20035;-74
2022/01/02 11:00:18;;;;;;;0.85;0.85;;;;;;;;;;4969999;28;20102;-74
2022/01/02 11:02:44;;;;;;;0.70;0.70;;;;;;;;;;4987694;28;20023;-76
2022/01/02 11:05:10;;;;;;;0.63;0.60;;;;;;;;;;4967710;28;20385;-77
2022/01/02 11:07:40;;;;;;;0.52;0.52;;;;;;;;;;4990508;28;20023;-78
2022/01/02 11:10:05;;;;;;;0.70;0.70;;;;;;;;;;4990085;28;20026;-77
2022/01/02 11:12:31;;;;;;;0.70;0.70;;;;;;;;;;4959247;28;20101;-76
2022/01/02 11:14:56;;;;;;;0.70;0.70;;;;;;;;;;4991787;28;20113;-76
2022/01/02 11:17:21;;;;;;;0.73;0.73;;;;;;;;;;4971594;28;20118;-78
2022/01/02 11:19:47;;;;;;;1.00;1.00;;;;;;;;;;4974860;28;20643;-79
2022/01/02 11:22:17;;;;;;;0.70;0.70;;;;;;;;;;4973533;28;20130;-78
2022/01/02 11:25:13;;;;;;;0.80;0.80;;;;;;;;;;4963595;28;20035;-80
2022/01/02 11:27:47;;;;;;;0.90;0.90;;;;;;;;;;4975099;28;20125;-81
2022/01/02 11:30:33;;;;;;;0.73;0.73;;;;;;;;;;4973547;28;20359;-80
2022/01/02 11:33:03;;;;;;;0.65;0.65;;;;;;;;;;4975180;28;20034;-81
2022/01/02 11:35:31;;;;;;;0.50;0.50;;;;;;;;;;4982119;28;20069;-80
2022/01/02 11:38:01;;;;;;;0.70;0.70;;;;;;;;;;4959134;28;20023;-80
2022/01/02 11:40:45;;;;;;;0.90;0.90;;;;;;;;;;4976462;28;20027;-81
2022/01/02 11:43:11;;;;;;;0.70;0.70;;;;;;;;;;4976907;28;20030;-80
2022/01/02 11:45:40;;;;;;;0.60;0.60;;;;;;;;;;4959953;28;20108;-81
2022/01/02 11:48:25;;;;;;;0.88;0.57;;;;;;;;;;4989028;28;20026;-81
2022/01/02 11:50:51;;;;;;;0.70;0.70;;;;;;;;;;4962286;28;20023;-81
2022/01/02 11:53:18;;;;;;;0.57;0.57;;;;;;;;;;4976247;28;20041;-81
2022/01/02 11:55:44;;;;;;;0.60;0.60;;;;;;;;;;4971147;28;20109;-81
2022/01/02 11:58:09;;;;;;;0.70;0.70;;;;;;;;;;4959111;28;20355;-81
2022/01/02 12:00:43;;;;;;;0.77;0.60;;;;;;;;;;4977726;28;20034;-80
2022/01/02 12:03:28;;;;;;;;;;;;;;;;;;4991038;28;20030;-81
2022/01/02 12:06:22;;;;;;;0.50;0.50;;;;;;;;;;4972878;28;19918;-81
2022/01/02 12:08:52;;;;;;;0.52;0.52;;;;;;;;;;4974265;28;20031;-81
2022/01/02 12:11:32;;;;;;;0.60;0.60;;;;;;;;;;4959043;28;20030;-82
2022/01/02 12:14:04;;;;;;;0.50;0.50;;;;;;;;;;4975216;28;20030;-81
2022/01/02 12:16:37;;;;;;;0.50;0.50;;;;;;;;;;4972469;28;20784;-80
2022/01/02 12:19:03;;;;;;;0.68;0.68;;;;;;;;;;4970079;28;20086;-81
2022/01/02 12:21:31;;;;;;;0.63;0.63;;;;;;;;;;4974198;28;20027;-82
2022/01/02 12:23:57;;;;;;;0.47;0.47;;;;;;;;;;4975450;28;20140;-81
2022/01/02 12:26:30;;;;;;;0.60;0.60;;;;;;;;;;4971541;28;20129;-80
2022/01/02 12:29:06;;;;;;;0.50;0.50;;;;;;;;;;4972301;28;20034;-80
2022/01/02 12:31:36;;;;;;;0.75;0.50;;;;;;;;;;4957893;28;20146;-81
2022/01/02 12:34:20;;;;;;;0.50;0.50;;;;;;;;;;4989794;28;20498;-81
2022/01/02 12:36:50;;;;;;;0.50;0.50;;;;;;;;;;4977496;28;20034;-81
2022/01/02 12:39:32;;;;;;;0.40;0.40;;;;;;;;;;4989839;28;20019;-81
2022/01/02 12:42:04;;;;;;;0.82;0.70;;;;;;;;;;4972781;28;20053;-81
2022/01/02 12:44:32;;;;;;;0.70;0.70;;;;;;;;;;4972211;28;20035;-81
2022/01/02 12:46:58;;;;;;;0.77;0.77;;;;;;;;;;4973852;28;20019;-81
2022/01/02 12:49:25;;;;;;;0.50;0.50;;;;;;;;;;4974377;28;20549;-82
2022/01/02 12:51:58;;;;;;;0.45;0.45;;;;;;;;;;4988569;28;20030;-81
2022/01/02 12:54:27;;;;;;;0.60;0.60;;;;;;;;;;4975429;28;20041;-81
2022/01/02 12:56:53;;;;;;;0.65;0.65;;;;;;;;;;4972470;28;20534;-81
2022/01/02 12:59:24;;;;;;;0.60;0.60;;;;;;;;;;4969863;28;20039;-81
2022/01/02 13:02:21;;;;;;;0.70;0.70;;;;;;;;;;4973168;28;20043;-80
2022/01/02 13:04:47;;;;;;;0.70;0.70;;;;;;;;;;4964638;28;20038;-80
2022/01/02 13:07:37;;;;;;;0.70;0.70;;;;;;;;;;4986887;28;20056;-80
2022/01/02 13:10:13;;;;;;;0.60;0.60;;;;;;;;;;4974057;28;20045;-81
2022/01/02 13:12:39;;;;;;;1.00;1.00;;;;;;;;;;4973948;28;20029;-81
2022/01/02 13:15:08;;;;;;;1.48;0.90;;;;;;;;;;4974304;28;20109;-84
2022/01/02 13:17:38;;;;;;;0.82;0.80;;;;;;;;;;4969091;28;20019;-81
2022/01/02 13:20:14;;;;;;;1.70;0.85;;;;;;;;;;4972784;28;20026;-82
2022/01/02 13:22:46;;;;;;;1.10;1.10;;;;;;;;;;4983657;28;20034;-80
2022/01/02 13:25:17;;;;;;;1.17;0.90;;;;;;;;;;4973763;28;20027;-80
2022/01/02 13:28:00;;;;;;;1.60;1.00;;;;;;;;;;4975676;28;20445;-81
2022/01/02 13:30:28;;;;;;;1.35;1.13;;;;;;;;;;4971515;28;20038;-83
2022/01/02 13:32:54;;;;;;;1.13;0.98;;;;;;;;;;4959910;28;20046;-81
2022/01/02 13:35:21;;;;;;;3.80;1.00;;;;;;;;;;4959664;28;20034;-80
2022/01/02 13:37:51;;;;;;;1.27;1.13;;;;;;;;;;4971252;28;20073;-79
2022/01/02 13:40:16;;;;;;;1.92;1.20;;;;;;;;;;4963735;28;20485;-80
2022/01/02 13:42:43;;;;;;;2.15;1.10;;;;;;;;;;4970719;28;20117;-79
2022/01/02 13:45:13;;;;;;;2.13;1.10;;;;;;;;;;4969206;28;20026;-78
2022/01/02 13:47:38;;;;;;;3.83;1.15;;;;;;;;;;4974047;28;20030;-78
2022/01/02 13:50:04;;;;;;;1.83;1.10;;;;;;;;;;4970939;28;20030;-78
2022/01/02 13:52:29;;;;;;;1.35;1.20;;;;;;;;;;4972902;28;20034;-78
2022/01/02 13:55:08;;;;;;;1.15;1.10;;;;;;;;;;4972491;28;20042;-78
2022/01/02 13:57:33;;;;;;;3.20;1.15;;;;;;;;;;4958004;28;20031;-79
2022/01/02 14:00:15;;;;;;;1.35;1.00;;;;;;;;;;4971985;28;20547;-78
2022/01/02 14:02:40;;;;;;;1.05;1.00;;;;;;;;;;4954952;28;20108;-78
2022/01/02 14:05:05;;;;;;;1.30;1.20;;;;;;;;;;4976241;28;20892;-79
2022/01/02 14:07:32;;;;;;;1.00;1.00;;;;;;;;;;4975778;28;20546;-78
2022/01/02 14:09:59;;;;;;;1.58;1.25;;;;;;;;;;4989047;28;20038;-78
2022/01/02 14:12:28;;;;;;;1.33;1.23;;;;;;;;;;4989761;28;20043;-79
2022/01/02 14:15:02;;;;;;;2.15;1.08;;;;;;;;;;4976440;28;20050;-78
2022/01/02 14:17:34;;;;;;;;;;;;;;;;;;4992487;28;20058;-78
2022/01/02 14:20:00;;;;;;;1.20;1.10;;;;;;;;;;4993715;28;19973;-78
2022/01/02 14:22:26;;;;;;;1.00;1.00;;;;;;;;;;4988141;28;20584;-78
2022/01/02 14:24:52;;;;;;;1.13;1.02;;;;;;;;;;4963715;28;20827;-78
2022/01/02 14:27:20;;;;;;;1.33;1.10;;;;;;;;;;4961166;28;20093;-78
2022/01/02 14:29:45;;;;;;;1.40;1.30;;;;;;;;;;4978690;28;20038;-78
2022/01/02 14:32:12;;;;;;;2.17;1.45;;;;;;;;;;4962033;28;20035;-78
2022/01/02 14:34:37;;;;;;;1.77;1.25;;;;;;;;;;4980432;28;20030;-78
2022/01/02 14:37:03;;;;;;;2.47;1.10;;;;;;;;;;4977524;28;20026;-78
2022/01/02 14:39:28;;;;;;;1.77;1.20;;;;;;;;;;4994148;28;20023;-78
2022/01/02 14:41:53;;;;;;;2.70;1.40;;;;;;;;;;4991510;28;20034;-78
2022/01/02 14:44:19;;;;;;;1.30;1.20;;;;;;;;;;4991267;28;20026;-78
2022/01/02 14:46:45;;;;;;;1.88;1.50;;;;;;;;;;4976303;28;20081;-78
2022/01/02 14:49:10;;;;;;;1.58;1.48;;;;;;;;;;4978833;28;20026;-78
2022/01/02 14:51:35;;;;;;;2.50;1.38;;;;;;;;;;4992261;28;20038;-78
2022/01/02 14:54:01;;;;;;;2.08;1.30;;;;;;;;;;4989710;28;20027;-79
2022/01/02 14:56:26;;;;;;;1.90;1.40;;;;;;;;;;4991144;28;20441;-78